sensor_id;sensor_type;location;lat;lon;timestamp;P1;durP1;ratioP1;P2;durP2;ratioP2
7965;SDS011;4028;43.272;26.932;2024-02-26T00:00:01;30.83;;;20.17;;
7965;SDS011;4028;43.272;26.932;2024-02-26T00:02:27;28.77;;;21.60;;
7965;SDS011;4028;43.272;26.932;2024-02-26T00:04:52;35.00;;;25.23;;
7965;SDS011;4028;43.272;26.932;2024-02-26T00:07:18;31.10;;;24.70;;
7965;SDS011;4028;43.272;26.932;2024-02-26T00:09:43;33.57;;;24.40;;
7965;SDS011;4028;43.272;26.932;2024-02-26T00:12:08;35.53;;;24.80;;
7965;SDS011;4028;43.272;26.932;2024-02-26T00:14:34;30.17;;;22.43;;
7965;SDS011;4028;43.272;26.932;2024-02-26T00:17:00;28.73;;;21.20;;
7965;SDS011;4028;43.272;26.932;2024-02-26T00:19:25;27.70;;;20.60;;
7965;SDS011;4028;43.272;26.932;2024-02-26T00:21:51;29.20;;;22.07;;
7965;SDS011;4028;43.272;26.932;2024-02-26T00:24:18;41.70;;;27.87;;
7965;SDS011;4028;43.272;26.932;2024-02-26T00:26:44;33.33;;;25.07;;
7965;SDS011;4028;43.272;26.932;2024-02-26T00:29:09;36.40;;;25.60;;
7965;SDS011;4028;43.272;26.932;2024-02-26T00:31:36;32.63;;;24.57;;
7965;SDS011;4028;43.272;26.932;2024-02-26T00:34:02;30.17;;;23.67;;
7965;SDS011;4028;43.272;26.932;2024-02-26T00:36:27;30.10;;;23.67;;
7965;SDS011;4028;43.272;26.932;2024-02-26T00:38:53;27.93;;;23.00;;
7965;SDS011;4028;43.272;26.932;2024-02-26T00:41:18;26.60;;;21.73;;
7965;SDS011;4028;43.272;26.932;2024-02-26T00:43:45;27.03;;;23.10;;
7965;SDS011;4028;43.272;26.932;2024-02-26T00:46:11;27.53;;;22.90;;
7965;SDS011;4028;43.272;26.932;2024-02-26T00:48:37;27.50;;;22.83;;
7965;SDS011;4028;43.272;26.932;2024-02-26T00:51:02;25.13;;;20.53;;
7965;SDS011;4028;43.272;26.932;2024-02-26T00:53:30;26.03;;;21.53;;
7965;SDS011;4028;43.272;26.932;2024-02-26T00:55:56;20.47;;;17.90;;
7965;SDS011;4028;43.272;26.932;2024-02-26T00:58:23;23.63;;;19.80;;
7965;SDS011;4028;43.272;26.932;2024-02-26T01:00:49;23.60;;;18.83;;
7965;SDS011;4028;43.272;26.932;2024-02-26T01:03:14;21.90;;;17.10;;
7965;SDS011;4028;43.272;26.932;2024-02-26T01:05:40;22.20;;;17.53;;
7965;SDS011;4028;43.272;26.932;2024-02-26T01:08:05;18.67;;;16.57;;
7965;SDS011;4028;43.272;26.932;2024-02-26T01:10:31;22.50;;;16.50;;
7965;SDS011;4028;43.272;26.932;2024-02-26T01:12:56;18.67;;;15.50;;
7965;SDS011;4028;43.272;26.932;2024-02-26T01:15:22;20.63;;;16.93;;
7965;SDS011;4028;43.272;26.932;2024-02-26T01:17:49;16.97;;;15.17;;
7965;SDS011;4028;43.272;26.932;2024-02-26T01:20:15;20.13;;;14.70;;
7965;SDS011;4028;43.272;26.932;2024-02-26T01:22:42;17.90;;;15.80;;
7965;SDS011;4028;43.272;26.932;2024-02-26T01:25:08;27.73;;;16.73;;
7965;SDS011;4028;43.272;26.932;2024-02-26T01:27:34;17.70;;;15.37;;
7965;SDS011;4028;43.272;26.932;2024-02-26T01:30:01;25.33;;;15.80;;
7965;SDS011;4028;43.272;26.932;2024-02-26T01:32:31;18.73;;;13.93;;
7965;SDS011;4028;43.272;26.932;2024-02-26T01:34:56;17.43;;;14.77;;
7965;SDS011;4028;43.272;26.932;2024-02-26T01:37:22;17.27;;;14.80;;
7965;SDS011;4028;43.272;26.932;2024-02-26T01:39:48;17.33;;;14.17;;
7965;SDS011;4028;43.272;26.932;2024-02-26T01:42:13;15.83;;;14.03;;
7965;SDS011;4028;43.272;26.932;2024-02-26T01:44:39;16.03;;;13.27;;
7965;SDS011;4028;43.272;26.932;2024-02-26T01:47:07;16.20;;;13.80;;
7965;SDS011;4028;43.272;26.932;2024-02-26T01:49:36;15.20;;;13.17;;
7965;SDS011;4028;43.272;26.932;2024-02-26T01:52:02;19.17;;;13.27;;
7965;SDS011;4028;43.272;26.932;2024-02-26T01:54:29;14.80;;;12.03;;
7965;SDS011;4028;43.272;26.932;2024-02-26T01:56:56;17.30;;;11.93;;
7965;SDS011;4028;43.272;26.932;2024-02-26T01:59:22;14.77;;;12.30;;
7965;SDS011;4028;43.272;26.932;2024-02-26T02:01:50;13.93;;;12.50;;
7965;SDS011;4028;43.272;26.932;2024-02-26T02:04:19;16.43;;;12.40;;
7965;SDS011;4028;43.272;26.932;2024-02-26T02:06:45;15.97;;;13.80;;
7965;SDS011;4028;43.272;26.932;2024-02-26T02:09:11;15.77;;;12.97;;
7965;SDS011;4028;43.272;26.932;2024-02-26T02:11:37;17.23;;;12.83;;
7965;SDS011;4028;43.272;26.932;2024-02-26T02:14:03;18.20;;;13.80;;
7965;SDS011;4028;43.272;26.932;2024-02-26T02:16:28;18.33;;;12.93;;
7965;SDS011;4028;43.272;26.932;2024-02-26T02:18:54;15.43;;;13.57;;
7965;SDS011;4028;43.272;26.932;2024-02-26T02:21:19;17.05;;;12.55;;
7965;SDS011;4028;43.272;26.932;2024-02-26T02:23:45;18.33;;;14.57;;
7965;SDS011;4028;43.272;26.932;2024-02-26T02:26:14;16.53;;;13.40;;
7965;SDS011;4028;43.272;26.932;2024-02-26T02:28:40;18.53;;;14.07;;
7965;SDS011;4028;43.272;26.932;2024-02-26T02:31:06;19.40;;;15.43;;
7965;SDS011;4028;43.272;26.932;2024-02-26T02:33:32;22.97;;;16.53;;
7965;SDS011;4028;43.272;26.932;2024-02-26T02:35:59;18.63;;;15.07;;
7965;SDS011;4028;43.272;26.932;2024-02-26T02:38:24;16.40;;;13.27;;
7965;SDS011;4028;43.272;26.932;2024-02-26T02:40:53;16.87;;;13.40;;
7965;SDS011;4028;43.272;26.932;2024-02-26T02:43:19;22.87;;;13.90;;
7965;SDS011;4028;43.272;26.932;2024-02-26T02:45:44;16.90;;;13.67;;
7965;SDS011;4028;43.272;26.932;2024-02-26T02:48:13;21.50;;;14.27;;
7965;SDS011;4028;43.272;26.932;2024-02-26T02:50:39;16.07;;;12.60;;
7965;SDS011;4028;43.272;26.932;2024-02-26T02:53:04;19.60;;;13.73;;
7965;SDS011;4028;43.272;26.932;2024-02-26T02:55:30;16.23;;;12.87;;
7965;SDS011;4028;43.272;26.932;2024-02-26T02:57:55;12.83;;;11.33;;
7965;SDS011;4028;43.272;26.932;2024-02-26T03:00:20;16.27;;;11.93;;
7965;SDS011;4028;43.272;26.932;2024-02-26T03:02:48;13.90;;;11.67;;
7965;SDS011;4028;43.272;26.932;2024-02-26T03:05:14;15.90;;;11.93;;
7965;SDS011;4028;43.272;26.932;2024-02-26T03:07:39;15.97;;;12.53;;
7965;SDS011;4028;43.272;26.932;2024-02-26T03:10:05;17.07;;;11.97;;
7965;SDS011;4028;43.272;26.932;2024-02-26T03:12:31;14.33;;;12.17;;
7965;SDS011;4028;43.272;26.932;2024-02-26T03:14:59;18.07;;;12.57;;
7965;SDS011;4028;43.272;26.932;2024-02-26T03:17:28;12.47;;;11.03;;
7965;SDS011;4028;43.272;26.932;2024-02-26T03:19:53;15.27;;;11.60;;
7965;SDS011;4028;43.272;26.932;2024-02-26T03:22:19;17.50;;;11.43;;
7965;SDS011;4028;43.272;26.932;2024-02-26T03:24:45;17.47;;;12.23;;
7965;SDS011;4028;43.272;26.932;2024-02-26T03:27:11;15.13;;;11.43;;
7965;SDS011;4028;43.272;26.932;2024-02-26T03:29:37;14.33;;;11.20;;
7965;SDS011;4028;43.272;26.932;2024-02-26T03:32:02;14.17;;;11.23;;
7965;SDS011;4028;43.272;26.932;2024-02-26T03:34:28;15.53;;;11.07;;
7965;SDS011;4028;43.272;26.932;2024-02-26T03:36:55;14.93;;;11.23;;
7965;SDS011;4028;43.272;26.932;2024-02-26T03:39:21;13.90;;;11.27;;
7965;SDS011;4028;43.272;26.932;2024-02-26T03:41:47;13.77;;;11.00;;
7965;SDS011;4028;43.272;26.932;2024-02-26T03:44:13;15.27;;;12.93;;
7965;SDS011;4028;43.272;26.932;2024-02-26T03:46:39;17.07;;;13.17;;
7965;SDS011;4028;43.272;26.932;2024-02-26T03:49:04;16.87;;;13.10;;
7965;SDS011;4028;43.272;26.932;2024-02-26T03:51:29;16.53;;;13.77;;
7965;SDS011;4028;43.272;26.932;2024-02-26T03:53:57;15.97;;;13.73;;
7965;SDS011;4028;43.272;26.932;2024-02-26T03:56:23;17.00;;;14.80;;
7965;SDS011;4028;43.272;26.932;2024-02-26T03:58:49;17.07;;;12.97;;
7965;SDS011;4028;43.272;26.932;2024-02-26T04:01:14;16.67;;;12.87;;
7965;SDS011;4028;43.272;26.932;2024-02-26T04:03:40;15.53;;;12.07;;
7965;SDS011;4028;43.272;26.932;2024-02-26T04:06:08;16.27;;;12.53;;
7965;SDS011;4028;43.272;26.932;2024-02-26T04:08:35;14.53;;;12.37;;
7965;SDS011;4028;43.272;26.932;2024-02-26T04:11:01;13.60;;;12.03;;
7965;SDS011;4028;43.272;26.932;2024-02-26T04:13:27;15.33;;;13.00;;
7965;SDS011;4028;43.272;26.932;2024-02-26T04:15:53;13.43;;;12.10;;
7965;SDS011;4028;43.272;26.932;2024-02-26T04:18:18;15.73;;;13.03;;
7965;SDS011;4028;43.272;26.932;2024-02-26T04:20:44;16.27;;;12.80;;
7965;SDS011;4028;43.272;26.932;2024-02-26T04:23:09;14.47;;;12.70;;
7965;SDS011;4028;43.272;26.932;2024-02-26T04:25:34;15.07;;;13.47;;
7965;SDS011;4028;43.272;26.932;2024-02-26T04:28:00;14.57;;;12.90;;
7965;SDS011;4028;43.272;26.932;2024-02-26T04:30:25;19.43;;;15.03;;
7965;SDS011;4028;43.272;26.932;2024-02-26T04:32:51;16.77;;;13.83;;
7965;SDS011;4028;43.272;26.932;2024-02-26T04:35:17;19.33;;;14.47;;
7965;SDS011;4028;43.272;26.932;2024-02-26T04:37:42;16.90;;;13.20;;
7965;SDS011;4028;43.272;26.932;2024-02-26T04:40:08;16.10;;;13.57;;
7965;SDS011;4028;43.272;26.932;2024-02-26T04:42:33;16.03;;;14.07;;
7965;SDS011;4028;43.272;26.932;2024-02-26T04:44:59;15.57;;;13.43;;
7965;SDS011;4028;43.272;26.932;2024-02-26T04:47:24;15.30;;;13.70;;
7965;SDS011;4028;43.272;26.932;2024-02-26T04:49:50;14.80;;;13.23;;
7965;SDS011;4028;43.272;26.932;2024-02-26T04:52:15;17.90;;;14.07;;
7965;SDS011;4028;43.272;26.932;2024-02-26T04:54:41;18.53;;;14.87;;
7965;SDS011;4028;43.272;26.932;2024-02-26T04:57:07;16.57;;;14.87;;
7965;SDS011;4028;43.272;26.932;2024-02-26T04:59:32;17.57;;;15.67;;
7965;SDS011;4028;43.272;26.932;2024-02-26T05:01:57;18.97;;;16.67;;
7965;SDS011;4028;43.272;26.932;2024-02-26T05:04:23;21.60;;;17.10;;
7965;SDS011;4028;43.272;26.932;2024-02-26T05:06:48;20.87;;;17.27;;
7965;SDS011;4028;43.272;26.932;2024-02-26T05:09:14;21.33;;;17.57;;
7965;SDS011;4028;43.272;26.932;2024-02-26T05:11:39;24.97;;;19.40;;
7965;SDS011;4028;43.272;26.932;2024-02-26T05:14:05;24.90;;;22.27;;
7965;SDS011;4028;43.272;26.932;2024-02-26T05:16:31;33.87;;;24.70;;
7965;SDS011;4028;43.272;26.932;2024-02-26T05:18:57;35.17;;;25.37;;
7965;SDS011;4028;43.272;26.932;2024-02-26T05:21:22;33.13;;;26.37;;
7965;SDS011;4028;43.272;26.932;2024-02-26T05:23:48;34.73;;;27.33;;
7965;SDS011;4028;43.272;26.932;2024-02-26T05:26:22;35.90;;;26.83;;
7965;SDS011;4028;43.272;26.932;2024-02-26T05:28:48;30.67;;;26.03;;
7965;SDS011;4028;43.272;26.932;2024-02-26T05:31:14;31.33;;;24.73;;
7965;SDS011;4028;43.272;26.932;2024-02-26T05:33:40;27.30;;;23.63;;
7965;SDS011;4028;43.272;26.932;2024-02-26T05:36:06;29.83;;;24.97;;
7965;SDS011;4028;43.272;26.932;2024-02-26T05:38:31;31.27;;;24.37;;
7965;SDS011;4028;43.272;26.932;2024-02-26T05:40:57;30.87;;;24.83;;
7965;SDS011;4028;43.272;26.932;2024-02-26T05:43:24;30.07;;;24.20;;
7965;SDS011;4028;43.272;26.932;2024-02-26T05:45:50;30.60;;;25.83;;
7965;SDS011;4028;43.272;26.932;2024-02-26T05:48:15;31.23;;;26.33;;
7965;SDS011;4028;43.272;26.932;2024-02-26T05:50:41;35.67;;;26.17;;
7965;SDS011;4028;43.272;26.932;2024-02-26T05:53:06;31.37;;;23.83;;
7965;SDS011;4028;43.272;26.932;2024-02-26T05:55:32;29.33;;;22.97;;
7965;SDS011;4028;43.272;26.932;2024-02-26T05:57:57;31.20;;;22.93;;
7965;SDS011;4028;43.272;26.932;2024-02-26T06:00:23;26.97;;;21.13;;
7965;SDS011;4028;43.272;26.932;2024-02-26T06:02:48;27.17;;;21.93;;
7965;SDS011;4028;43.272;26.932;2024-02-26T06:05:14;28.13;;;21.60;;
7965;SDS011;4028;43.272;26.932;2024-02-26T06:07:39;29.77;;;22.50;;
7965;SDS011;4028;43.272;26.932;2024-02-26T06:10:05;25.60;;;21.07;;
7965;SDS011;4028;43.272;26.932;2024-02-26T06:12:31;26.97;;;21.83;;
7965;SDS011;4028;43.272;26.932;2024-02-26T06:14:56;28.23;;;22.33;;
7965;SDS011;4028;43.272;26.932;2024-02-26T06:17:22;32.33;;;23.27;;
7965;SDS011;4028;43.272;26.932;2024-02-26T06:19:47;29.63;;;21.37;;
7965;SDS011;4028;43.272;26.932;2024-02-26T06:22:13;26.67;;;22.50;;
7965;SDS011;4028;43.272;26.932;2024-02-26T06:24:38;30.13;;;22.63;;
7965;SDS011;4028;43.272;26.932;2024-02-26T06:27:04;31.07;;;22.87;;
7965;SDS011;4028;43.272;26.932;2024-02-26T06:29:30;28.93;;;23.73;;
7965;SDS011;4028;43.272;26.932;2024-02-26T06:31:55;34.83;;;26.80;;
7965;SDS011;4028;43.272;26.932;2024-02-26T06:34:20;29.03;;;24.83;;
7965;SDS011;4028;43.272;26.932;2024-02-26T06:36:46;29.30;;;23.60;;
7965;SDS011;4028;43.272;26.932;2024-02-26T06:39:12;27.90;;;21.10;;
7965;SDS011;4028;43.272;26.932;2024-02-26T06:41:37;28.17;;;20.97;;
7965;SDS011;4028;43.272;26.932;2024-02-26T06:44:04;30.40;;;21.40;;
7965;SDS011;4028;43.272;26.932;2024-02-26T06:46:30;26.37;;;20.63;;
7965;SDS011;4028;43.272;26.932;2024-02-26T06:48:55;27.93;;;19.97;;
7965;SDS011;4028;43.272;26.932;2024-02-26T06:51:21;28.37;;;20.13;;
7965;SDS011;4028;43.272;26.932;2024-02-26T06:53:47;29.53;;;22.07;;
7965;SDS011;4028;43.272;26.932;2024-02-26T06:56:13;29.90;;;21.00;;
7965;SDS011;4028;43.272;26.932;2024-02-26T06:58:38;26.27;;;21.23;;
7965;SDS011;4028;43.272;26.932;2024-02-26T07:01:04;26.60;;;20.97;;
7965;SDS011;4028;43.272;26.932;2024-02-26T07:03:29;23.27;;;19.00;;
7965;SDS011;4028;43.272;26.932;2024-02-26T07:05:55;27.47;;;20.70;;
7965;SDS011;4028;43.272;26.932;2024-02-26T07:08:21;27.17;;;22.17;;
7965;SDS011;4028;43.272;26.932;2024-02-26T07:10:46;26.53;;;20.90;;
7965;SDS011;4028;43.272;26.932;2024-02-26T07:13:12;22.07;;;18.63;;
7965;SDS011;4028;43.272;26.932;2024-02-26T07:15:37;26.07;;;20.23;;
7965;SDS011;4028;43.272;26.932;2024-02-26T07:18:03;23.40;;;19.23;;
7965;SDS011;4028;43.272;26.932;2024-02-26T07:20:29;26.10;;;19.07;;
7965;SDS011;4028;43.272;26.932;2024-02-26T07:22:55;28.70;;;19.47;;
7965;SDS011;4028;43.272;26.932;2024-02-26T07:25:21;24.13;;;19.83;;
7965;SDS011;4028;43.272;26.932;2024-02-26T07:27:46;25.03;;;18.63;;
7965;SDS011;4028;43.272;26.932;2024-02-26T07:30:12;24.53;;;19.57;;
7965;SDS011;4028;43.272;26.932;2024-02-26T07:32:38;24.23;;;19.87;;
7965;SDS011;4028;43.272;26.932;2024-02-26T07:35:03;23.50;;;20.20;;
7965;SDS011;4028;43.272;26.932;2024-02-26T07:37:30;25.83;;;20.53;;
7965;SDS011;4028;43.272;26.932;2024-02-26T07:39:56;22.03;;;18.23;;
7965;SDS011;4028;43.272;26.932;2024-02-26T07:42:21;19.67;;;16.43;;
7965;SDS011;4028;43.272;26.932;2024-02-26T07:44:46;19.33;;;16.30;;
7965;SDS011;4028;43.272;26.932;2024-02-26T07:47:12;15.93;;;14.23;;
7965;SDS011;4028;43.272;26.932;2024-02-26T07:49:37;19.30;;;15.73;;
7965;SDS011;4028;43.272;26.932;2024-02-26T07:52:04;21.27;;;15.93;;
7965;SDS011;4028;43.272;26.932;2024-02-26T07:54:30;24.03;;;15.60;;
7965;SDS011;4028;43.272;26.932;2024-02-26T07:56:55;18.33;;;14.23;;
7965;SDS011;4028;43.272;26.932;2024-02-26T07:59:20;18.87;;;15.63;;
7965;SDS011;4028;43.272;26.932;2024-02-26T08:01:52;21.10;;;14.83;;
7965;SDS011;4028;43.272;26.932;2024-02-26T08:04:18;22.43;;;15.87;;
7965;SDS011;4028;43.272;26.932;2024-02-26T08:06:43;19.70;;;15.03;;
7965;SDS011;4028;43.272;26.932;2024-02-26T08:09:08;21.93;;;16.10;;
7965;SDS011;4028;43.272;26.932;2024-02-26T08:11:34;21.67;;;15.13;;
7965;SDS011;4028;43.272;26.932;2024-02-26T08:14:00;21.87;;;14.37;;
7965;SDS011;4028;43.272;26.932;2024-02-26T08:16:25;18.30;;;14.03;;
7965;SDS011;4028;43.272;26.932;2024-02-26T08:18:51;18.00;;;13.63;;
7965;SDS011;4028;43.272;26.932;2024-02-26T08:21:16;19.97;;;13.10;;
7965;SDS011;4028;43.272;26.932;2024-02-26T08:23:43;16.37;;;12.50;;
7965;SDS011;4028;43.272;26.932;2024-02-26T08:26:09;14.93;;;11.53;;
7965;SDS011;4028;43.272;26.932;2024-02-26T08:28:38;17.08;;;11.43;;
7965;SDS011;4028;43.272;26.932;2024-02-26T08:31:04;17.45;;;11.23;;
7965;SDS011;4028;43.272;26.932;2024-02-26T08:33:29;22.25;;;11.88;;
7965;SDS011;4028;43.272;26.932;2024-02-26T08:35:56;17.85;;;12.65;;
7965;SDS011;4028;43.272;26.932;2024-02-26T08:38:21;16.67;;;11.48;;
7965;SDS011;4028;43.272;26.932;2024-02-26T08:40:47;14.18;;;11.75;;
7965;SDS011;4028;43.272;26.932;2024-02-26T08:43:12;16.67;;;11.60;;
7965;SDS011;4028;43.272;26.932;2024-02-26T08:45:38;16.07;;;11.40;;
7965;SDS011;4028;43.272;26.932;2024-02-26T08:48:03;17.40;;;11.00;;
7965;SDS011;4028;43.272;26.932;2024-02-26T08:50:29;15.50;;;9.97;;
7965;SDS011;4028;43.272;26.932;2024-02-26T08:52:54;14.20;;;10.40;;
7965;SDS011;4028;43.272;26.932;2024-02-26T08:55:20;12.80;;;10.13;;
7965;SDS011;4028;43.272;26.932;2024-02-26T08:57:45;13.83;;;9.57;;
7965;SDS011;4028;43.272;26.932;2024-02-26T09:00:11;16.63;;;9.73;;
7965;SDS011;4028;43.272;26.932;2024-02-26T09:02:37;19.23;;;10.67;;
7965;SDS011;4028;43.272;26.932;2024-02-26T09:05:07;14.73;;;10.70;;
7965;SDS011;4028;43.272;26.932;2024-02-26T09:07:33;14.10;;;10.70;;
7965;SDS011;4028;43.272;26.932;2024-02-26T09:09:58;15.73;;;11.23;;
7965;SDS011;4028;43.272;26.932;2024-02-26T09:12:24;15.88;;;10.93;;
7965;SDS011;4028;43.272;26.932;2024-02-26T09:14:49;17.63;;;10.80;;
7965;SDS011;4028;43.272;26.932;2024-02-26T09:17:15;14.38;;;10.27;;
7965;SDS011;4028;43.272;26.932;2024-02-26T09:19:40;14.98;;;9.88;;
7965;SDS011;4028;43.272;26.932;2024-02-26T09:22:07;14.27;;;10.77;;
7965;SDS011;4028;43.272;26.932;2024-02-26T09:24:32;14.43;;;9.82;;
7965;SDS011;4028;43.272;26.932;2024-02-26T09:26:58;13.73;;;10.45;;
7965;SDS011;4028;43.272;26.932;2024-02-26T09:29:24;14.40;;;11.20;;
7965;SDS011;4028;43.272;26.932;2024-02-26T09:31:51;17.90;;;13.40;;
7965;SDS011;4028;43.272;26.932;2024-02-26T09:34:17;16.70;;;12.00;;
7965;SDS011;4028;43.272;26.932;2024-02-26T09:36:43;14.15;;;9.95;;
7965;SDS011;4028;43.272;26.932;2024-02-26T09:39:08;15.30;;;10.45;;
7965;SDS011;4028;43.272;26.932;2024-02-26T09:41:36;14.38;;;10.82;;
7965;SDS011;4028;43.272;26.932;2024-02-26T09:44:02;19.52;;;10.70;;
7965;SDS011;4028;43.272;26.932;2024-02-26T09:46:29;15.25;;;10.60;;
7965;SDS011;4028;43.272;26.932;2024-02-26T09:48:55;11.98;;;10.05;;
7965;SDS011;4028;43.272;26.932;2024-02-26T09:51:24;15.23;;;9.82;;
7965;SDS011;4028;43.272;26.932;2024-02-26T09:53:51;16.38;;;9.10;;
7965;SDS011;4028;43.272;26.932;2024-02-26T09:56:17;18.67;;;10.25;;
7965;SDS011;4028;43.272;26.932;2024-02-26T09:58:43;11.75;;;9.48;;
7965;SDS011;4028;43.272;26.932;2024-02-26T10:01:11;14.80;;;8.40;;
7965;SDS011;4028;43.272;26.932;2024-02-26T10:03:41;12.57;;;8.57;;
7965;SDS011;4028;43.272;26.932;2024-02-26T10:06:08;13.85;;;9.23;;
7965;SDS011;4028;43.272;26.932;2024-02-26T10:08:34;11.27;;;7.80;;
7965;SDS011;4028;43.272;26.932;2024-02-26T10:11:02;13.57;;;9.15;;
7965;SDS011;4028;43.272;26.932;2024-02-26T10:13:28;15.32;;;10.25;;
7965;SDS011;4028;43.272;26.932;2024-02-26T10:15:53;11.68;;;9.55;;
7965;SDS011;4028;43.272;26.932;2024-02-26T10:18:18;13.52;;;8.73;;
7965;SDS011;4028;43.272;26.932;2024-02-26T10:21:00;12.80;;;8.45;;
7965;SDS011;4028;43.272;26.932;2024-02-26T10:23:29;12.38;;;7.72;;
7965;SDS011;4028;43.272;26.932;2024-02-26T10:25:55;15.27;;;7.95;;
7965;SDS011;4028;43.272;26.932;2024-02-26T10:28:21;10.60;;;7.95;;
7965;SDS011;4028;43.272;26.932;2024-02-26T10:30:47;15.52;;;8.32;;
7965;SDS011;4028;43.272;26.932;2024-02-26T10:33:12;9.70;;;7.78;;
7965;SDS011;4028;43.272;26.932;2024-02-26T10:35:39;11.57;;;7.50;;
7965;SDS011;4028;43.272;26.932;2024-02-26T10:38:06;8.52;;;6.97;;
7965;SDS011;4028;43.272;26.932;2024-02-26T10:40:32;11.43;;;7.07;;
7965;SDS011;4028;43.272;26.932;2024-02-26T10:42:58;15.18;;;7.72;;
7965;SDS011;4028;43.272;26.932;2024-02-26T10:45:23;9.57;;;6.70;;
7965;SDS011;4028;43.272;26.932;2024-02-26T10:47:49;12.02;;;6.68;;
7965;SDS011;4028;43.272;26.932;2024-02-26T10:50:15;8.45;;;7.00;;
7965;SDS011;4028;43.272;26.932;2024-02-26T10:52:42;9.45;;;6.60;;
7965;SDS011;4028;43.272;26.932;2024-02-26T10:55:08;10.65;;;6.38;;
7965;SDS011;4028;43.272;26.932;2024-02-26T10:57:40;7.47;;;5.85;;
7965;SDS011;4028;43.272;26.932;2024-02-26T11:00:08;8.18;;;6.40;;
7965;SDS011;4028;43.272;26.932;2024-02-26T11:02:38;11.43;;;7.28;;
7965;SDS011;4028;43.272;26.932;2024-02-26T11:05:06;13.88;;;7.13;;
7965;SDS011;4028;43.272;26.932;2024-02-26T11:07:32;8.30;;;6.28;;
7965;SDS011;4028;43.272;26.932;2024-02-26T11:10:02;12.02;;;6.80;;
7965;SDS011;4028;43.272;26.932;2024-02-26T11:12:30;10.48;;;6.40;;
7965;SDS011;4028;43.272;26.932;2024-02-26T11:14:57;7.38;;;5.40;;
7965;SDS011;4028;43.272;26.932;2024-02-26T11:17:27;6.63;;;5.60;;
7965;SDS011;4028;43.272;26.932;2024-02-26T11:19:56;9.13;;;5.68;;
7965;SDS011;4028;43.272;26.932;2024-02-26T11:22:27;7.93;;;6.05;;
7965;SDS011;4028;43.272;26.932;2024-02-26T11:24:54;10.52;;;5.65;;
7965;SDS011;4028;43.272;26.932;2024-02-26T11:27:23;9.98;;;6.78;;
7965;SDS011;4028;43.272;26.932;2024-02-26T11:29:55;7.35;;;5.65;;
7965;SDS011;4028;43.272;26.932;2024-02-26T11:32:24;7.85;;;5.70;;
7965;SDS011;4028;43.272;26.932;2024-02-26T11:34:51;7.60;;;5.68;;
7965;SDS011;4028;43.272;26.932;2024-02-26T11:37:18;10.95;;;6.05;;
7965;SDS011;4028;43.272;26.932;2024-02-26T11:39:45;7.82;;;6.13;;
7965;SDS011;4028;43.272;26.932;2024-02-26T11:42:13;8.80;;;5.45;;
7965;SDS011;4028;43.272;26.932;2024-02-26T11:44:39;8.27;;;5.30;;
7965;SDS011;4028;43.272;26.932;2024-02-26T11:47:13;9.80;;;5.28;;
7965;SDS011;4028;43.272;26.932;2024-02-26T11:49:43;7.25;;;5.82;;
7965;SDS011;4028;43.272;26.932;2024-02-26T11:52:09;8.23;;;5.30;;
7965;SDS011;4028;43.272;26.932;2024-02-26T11:54:39;8.18;;;5.25;;
7965;SDS011;4028;43.272;26.932;2024-02-26T12:02:44;7.00;;;4.95;;
7965;SDS011;4028;43.272;26.932;2024-02-26T12:07:47;9.75;;;4.80;;
7965;SDS011;4028;43.272;26.932;2024-02-26T12:10:22;9.30;;;5.40;;
7965;SDS011;4028;43.272;26.932;2024-02-26T12:15:30;7.90;;;4.47;;
7965;SDS011;4028;43.272;26.932;2024-02-26T12:18:02;9.95;;;4.78;;
7965;SDS011;4028;43.272;26.932;2024-02-26T12:20:29;8.55;;;5.25;;
7965;SDS011;4028;43.272;26.932;2024-02-26T12:22:55;10.00;;;4.90;;
7965;SDS011;4028;43.272;26.932;2024-02-26T12:25:25;6.60;;;4.78;;
7965;SDS011;4028;43.272;26.932;2024-02-26T12:27:52;7.13;;;4.40;;
7965;SDS011;4028;43.272;26.932;2024-02-26T12:30:18;5.60;;;3.80;;
7965;SDS011;4028;43.272;26.932;2024-02-26T12:32:45;5.00;;;3.60;;
7965;SDS011;4028;43.272;26.932;2024-02-26T12:35:13;4.38;;;3.50;;
7965;SDS011;4028;43.272;26.932;2024-02-26T12:37:39;5.32;;;4.10;;
7965;SDS011;4028;43.272;26.932;2024-02-26T12:40:05;4.80;;;3.80;;
7965;SDS011;4028;43.272;26.932;2024-02-26T12:42:33;5.85;;;3.28;;
7965;SDS011;4028;43.272;26.932;2024-02-26T12:45:04;6.18;;;3.50;;
7965;SDS011;4028;43.272;26.932;2024-02-26T12:47:44;5.50;;;3.15;;
7965;SDS011;4028;43.272;26.932;2024-02-26T12:50:14;10.85;;;3.65;;
7965;SDS011;4028;43.272;26.932;2024-02-26T12:52:43;6.30;;;3.53;;
7965;SDS011;4028;43.272;26.932;2024-02-26T12:55:14;10.20;;;3.30;;
7965;SDS011;4028;43.272;26.932;2024-02-26T12:57:41;7.82;;;3.75;;
7965;SDS011;4028;43.272;26.932;2024-02-26T13:00:10;4.90;;;3.47;;
7965;SDS011;4028;43.272;26.932;2024-02-26T13:02:41;4.60;;;3.17;;
7965;SDS011;4028;43.272;26.932;2024-02-26T13:05:09;6.80;;;3.75;;
7965;SDS011;4028;43.272;26.932;2024-02-26T13:07:43;8.68;;;3.55;;
7965;SDS011;4028;43.272;26.932;2024-02-26T13:10:09;3.28;;;2.97;;
7965;SDS011;4028;43.272;26.932;2024-02-26T13:12:37;4.10;;;3.17;;
7965;SDS011;4028;43.272;26.932;2024-02-26T13:15:08;12.07;;;3.60;;
7965;SDS011;4028;43.272;26.932;2024-02-26T13:17:39;5.60;;;3.55;;
7965;SDS011;4028;43.272;26.932;2024-02-26T13:20:04;8.07;;;3.85;;
7965;SDS011;4028;43.272;26.932;2024-02-26T13:22:31;3.88;;;3.13;;
7965;SDS011;4028;43.272;26.932;2024-02-26T13:24:59;4.53;;;3.50;;
7965;SDS011;4028;43.272;26.932;2024-02-26T13:27:25;8.32;;;3.20;;
7965;SDS011;4028;43.272;26.932;2024-02-26T13:30:10;5.60;;;3.58;;
7965;SDS011;4028;43.272;26.932;2024-02-26T13:32:40;6.97;;;3.42;;
7965;SDS011;4028;43.272;26.932;2024-02-26T13:35:06;5.55;;;3.35;;
7965;SDS011;4028;43.272;26.932;2024-02-26T13:37:36;5.78;;;3.47;;
7965;SDS011;4028;43.272;26.932;2024-02-26T13:40:09;5.38;;;3.35;;
7965;SDS011;4028;43.272;26.932;2024-02-26T13:42:36;4.68;;;3.08;;
7965;SDS011;4028;43.272;26.932;2024-02-26T13:45:04;5.13;;;3.33;;
7965;SDS011;4028;43.272;26.932;2024-02-26T13:47:34;6.32;;;3.63;;
7965;SDS011;4028;43.272;26.932;2024-02-26T13:50:00;3.60;;;3.28;;
7965;SDS011;4028;43.272;26.932;2024-02-26T13:52:26;5.13;;;3.60;;
7965;SDS011;4028;43.272;26.932;2024-02-26T13:54:52;6.20;;;3.42;;
7965;SDS011;4028;43.272;26.932;2024-02-26T13:57:18;6.05;;;3.63;;
7965;SDS011;4028;43.272;26.932;2024-02-26T13:59:44;8.48;;;4.43;;
7965;SDS011;4028;43.272;26.932;2024-02-26T14:02:10;7.00;;;3.80;;
7965;SDS011;4028;43.272;26.932;2024-02-26T14:04:36;8.13;;;4.18;;
7965;SDS011;4028;43.272;26.932;2024-02-26T14:07:02;5.45;;;4.28;;
7965;SDS011;4028;43.272;26.932;2024-02-26T14:09:28;8.32;;;4.40;;
7965;SDS011;4028;43.272;26.932;2024-02-26T14:11:54;7.40;;;4.20;;
7965;SDS011;4028;43.272;26.932;2024-02-26T14:14:20;7.13;;;3.97;;
7965;SDS011;4028;43.272;26.932;2024-02-26T14:16:45;5.63;;;3.72;;
7965;SDS011;4028;43.272;26.932;2024-02-26T14:19:10;5.50;;;3.60;;
7965;SDS011;4028;43.272;26.932;2024-02-26T14:21:36;8.80;;;3.85;;
7965;SDS011;4028;43.272;26.932;2024-02-26T14:24:02;6.25;;;4.00;;
7965;SDS011;4028;43.272;26.932;2024-02-26T14:26:28;5.55;;;4.03;;
7965;SDS011;4028;43.272;26.932;2024-02-26T14:28:54;6.65;;;4.07;;
7965;SDS011;4028;43.272;26.932;2024-02-26T14:31:19;8.95;;;5.35;;
7965;SDS011;4028;43.272;26.932;2024-02-26T14:33:45;6.47;;;4.70;;
7965;SDS011;4028;43.272;26.932;2024-02-26T14:36:11;10.05;;;4.18;;
7965;SDS011;4028;43.272;26.932;2024-02-26T14:38:37;5.40;;;4.10;;
7965;SDS011;4028;43.272;26.932;2024-02-26T14:41:04;8.70;;;4.40;;
7965;SDS011;4028;43.272;26.932;2024-02-26T14:43:30;8.02;;;4.18;;
7965;SDS011;4028;43.272;26.932;2024-02-26T14:46:00;14.85;;;5.25;;
7965;SDS011;4028;43.272;26.932;2024-02-26T14:48:25;7.70;;;4.70;;